createdAt,value
2023-01-18T00:01:53.051Z,77.51
2023-01-18T00:04:26.187Z,77.77
2023-01-18T00:06:59.514Z,77.92
2023-01-18T00:09:32.805Z,77.69
2023-01-18T00:12:06.221Z,77.83
2023-01-18T00:14:39.645Z,77.61
2023-01-18T00:17:13.137Z,77.62
2023-01-18T00:19:46.377Z,77.73
2023-01-18T00:22:19.717Z,77.67
2023-01-18T00:24:52.910Z,77.63
2023-01-18T00:27:26.437Z,77.82
2023-01-18T00:30:00.210Z,77.41
2023-01-18T00:32:34.773Z,77.72
2023-01-18T00:35:09.410Z,77.79
2023-01-18T00:37:42.789Z,77.49
2023-01-18T00:40:17.039Z,77.82
2023-01-18T00:43:07.848Z,78.08
2023-01-18T00:45:41.982Z,78.03
2023-01-18T00:48:15.082Z,78.04
2023-01-18T00:50:48.223Z,77.74
2023-01-18T00:53:21.363Z,78.10
2023-01-18T00:55:54.546Z,77.70
2023-01-18T00:58:28.429Z,77.40
2023-01-18T01:01:02.385Z,77.68
2023-01-18T01:03:54.945Z,78.30
2023-01-18T01:06:46.624Z,78.35
2023-01-18T01:09:22.310Z,78.49
2023-01-18T01:12:15.264Z,78.54
2023-01-18T01:15:08.529Z,78.82
2023-01-18T01:17:59.575Z,78.49
2023-01-18T01:20:50.416Z,78.51
2023-01-18T01:23:42.633Z,78.72
2023-01-18T01:26:15.829Z,78.96
2023-01-18T01:28:52.978Z,79.04
2023-01-18T01:31:26.396Z,79.04
2023-01-18T01:33:59.814Z,79.14
2023-01-18T01:36:35.113Z,78.95
2023-01-18T01:39:10.196Z,78.94
2023-01-18T01:41:43.639Z,78.62
2023-01-18T01:44:45.559Z,78.65
2023-01-18T01:47:28.017Z,78.93
2023-01-18T01:50:04.751Z,78.78
2023-01-18T01:52:41.096Z,78.89
2023-01-18T01:55:21.262Z,78.94
2023-01-18T01:57:58.041Z,79.20
2023-01-18T02:00:32.092Z,79.01
2023-01-18T02:03:07.656Z,78.51
2023-01-18T02:05:44.263Z,78.74
2023-01-18T02:08:20.309Z,78.73
2023-01-18T02:10:54.257Z,78.68
2023-01-18T02:13:28.997Z,78.67
2023-01-18T02:16:05.813Z,78.43
2023-01-18T02:18:42.105Z,78.04
2023-01-18T02:21:20.637Z,78.09
2023-01-18T02:24:39.373Z,78.06
2023-01-18T02:27:19.176Z,77.64
2023-01-18T02:30:05.185Z,78.22
2023-01-18T02:32:57.517Z,78.13
2023-01-18T02:35:37.704Z,78.15
2023-01-18T02:38:13.840Z,77.95
2023-01-18T02:41:06.192Z,78.00
2023-01-18T02:44:00.268Z,78.11
2023-01-18T02:46:35.059Z,78.35
2023-01-18T02:49:11.668Z,78.23
2023-01-18T02:51:45.200Z,78.26
2023-01-18T02:54:20.904Z,78.18
2023-01-18T02:56:56.353Z,77.57
2023-01-18T02:59:32.885Z,77.77
2023-01-18T03:02:09.604Z,77.84
2023-01-18T03:04:47.491Z,78.08
2023-01-18T03:07:23.726Z,77.84
2023-01-18T03:09:58.210Z,78.11
2023-01-18T03:12:35.313Z,78.24
2023-01-18T03:15:13.159Z,78.28
2023-01-18T03:17:49.665Z,78.24
2023-01-18T03:20:26.320Z,78.22
2023-01-18T03:23:19.639Z,78.13
2023-01-18T03:25:55.722Z,77.82
2023-01-18T03:28:49.301Z,77.88
2023-01-18T03:31:43.555Z,78.16
2023-01-18T03:34:20.116Z,77.99
2023-01-18T03:36:55.165Z,77.83
2023-01-18T03:39:31.792Z,77.87
2023-01-18T03:42:08.226Z,77.83
2023-01-18T03:44:44.653Z,77.69
2023-01-18T03:47:18.238Z,77.37
2023-01-18T03:49:51.730Z,77.57
2023-01-18T03:52:27.389Z,77.58
2023-01-18T03:55:04.241Z,77.35
2023-01-18T03:57:40.940Z,77.38
2023-01-18T04:00:16.544Z,76.78
2023-01-18T04:02:51.406Z,76.88
2023-01-18T04:05:25.379Z,76.93
2023-01-18T04:07:58.877Z,77.21
2023-01-18T04:10:32.348Z,76.42
2023-01-18T04:13:05.456Z,76.08
2023-01-18T04:15:39.417Z,76.03
2023-01-18T04:18:12.981Z,76.35
2023-01-18T04:20:47.385Z,76.43
2023-01-18T04:23:21.029Z,76.29
2023-01-18T04:25:54.406Z,76.32
2023-01-18T04:28:28.208Z,76.44
2023-01-18T04:31:01.685Z,76.50
2023-01-18T04:33:36.936Z,76.24
2023-01-18T04:36:11.223Z,75.95
2023-01-18T04:38:44.346Z,76.22
2023-01-18T04:41:17.856Z,76.34
2023-01-18T04:43:51.306Z,76.32
2023-01-18T04:46:24.558Z,76.10
2023-01-18T04:48:58.125Z,76.21
2023-01-18T04:51:31.615Z,76.34
2023-01-18T04:54:04.802Z,75.82
2023-01-18T04:56:37.992Z,76.12
2023-01-18T04:59:14.721Z,76.14
2023-01-18T05:01:48.785Z,76.18
2023-01-18T05:04:22.506Z,75.80
2023-01-18T05:06:55.770Z,76.04
2023-01-18T05:09:28.962Z,75.98
2023-01-18T05:12:02.379Z,76.06
2023-01-18T05:14:35.640Z,76.19
2023-01-18T05:17:08.784Z,75.99
2023-01-18T05:19:42.015Z,75.80
2023-01-18T05:22:15.413Z,75.70
2023-01-18T05:24:48.671Z,76.00
2023-01-18T05:27:22.786Z,76.10
2023-01-18T05:29:56.002Z,75.90
2023-01-18T05:32:29.159Z,75.77
2023-01-18T05:35:02.387Z,75.87
2023-01-18T05:37:36.044Z,75.87
2023-01-18T05:40:12.977Z,75.86
2023-01-18T05:42:46.353Z,75.92
2023-01-18T05:45:20.180Z,76.03
2023-01-18T05:47:54.752Z,75.80
2023-01-18T05:50:27.981Z,75.82
2023-01-18T05:53:01.899Z,75.85
2023-01-18T05:55:35.603Z,75.71
2023-01-18T05:58:09.116Z,75.38
2023-01-18T06:00:42.547Z,75.82
2023-01-18T06:03:16.024Z,75.81
2023-01-18T06:05:51.578Z,75.87
2023-01-18T06:08:25.198Z,75.49
2023-01-18T06:10:59.973Z,75.32
2023-01-18T06:13:34.297Z,75.68
2023-01-18T06:16:09.244Z,75.27
2023-01-18T06:18:42.833Z,75.55
2023-01-18T06:21:18.077Z,75.57
2023-01-18T06:23:51.498Z,75.72
2023-01-18T06:26:24.974Z,75.76
2023-01-18T06:28:58.543Z,75.91
2023-01-18T06:31:32.068Z,75.98
2023-01-18T06:34:07.402Z,75.77
2023-01-18T06:36:40.830Z,75.67
2023-01-18T06:39:14.429Z,75.03
2023-01-18T06:41:50.382Z,75.07
2023-01-18T06:44:27.433Z,75.22
2023-01-18T06:47:02.031Z,75.53
2023-01-18T06:49:35.884Z,75.39
2023-01-18T06:52:09.610Z,75.35
2023-01-18T06:54:45.154Z,75.63
2023-01-18T06:57:18.657Z,75.45
2023-01-18T06:59:53.401Z,75.51
2023-01-18T07:02:26.686Z,75.35
2023-01-18T07:05:00.055Z,75.36
2023-01-18T07:07:35.000Z,75.28
2023-01-18T07:10:10.781Z,75.26
2023-01-18T07:12:45.922Z,75.45
2023-01-18T07:15:28.455Z,75.30
2023-01-18T07:18:05.069Z,74.72
2023-01-18T07:20:38.609Z,75.13
2023-01-18T07:23:12.125Z,75.11
2023-01-18T07:25:45.683Z,75.34
2023-01-18T07:28:19.067Z,75.17
2023-01-18T07:30:52.927Z,75.03
2023-01-18T07:33:26.855Z,75.13
2023-01-18T07:36:01.684Z,75.30
2023-01-18T07:38:36.126Z,75.18
2023-01-18T07:41:11.858Z,74.94
2023-01-18T07:43:45.633Z,74.70
2023-01-18T07:46:20.976Z,74.88
2023-01-18T07:48:54.781Z,74.72
2023-01-18T07:51:28.409Z,74.87
2023-01-18T07:54:01.875Z,74.94
2023-01-18T07:56:34.987Z,74.83
2023-01-18T07:59:08.851Z,74.98
2023-01-18T08:01:42.481Z,74.71
2023-01-18T08:04:16.570Z,74.71
2023-01-18T08:06:49.891Z,74.72
2023-01-18T08:09:23.424Z,74.30
2023-01-18T08:11:56.745Z,74.10
2023-01-18T08:14:30.285Z,74.28
2023-01-18T08:17:03.851Z,74.41
2023-01-18T08:19:37.335Z,74.16
2023-01-18T08:22:10.925Z,74.56
2023-01-18T08:24:44.406Z,74.30
2023-01-18T08:27:17.803Z,74.37
2023-01-18T08:29:51.265Z,74.35
2023-01-18T08:32:25.603Z,74.49
2023-01-18T08:34:59.128Z,74.62
2023-01-18T08:37:32.903Z,74.64
2023-01-18T08:40:07.052Z,74.61
2023-01-18T08:42:40.611Z,75.01
2023-01-18T08:45:14.601Z,74.57
2023-01-18T08:47:49.258Z,74.59
2023-01-18T08:50:23.316Z,74.49
2023-01-18T08:52:59.120Z,74.30
2023-01-18T08:55:34.957Z,74.52
2023-01-18T08:58:08.688Z,74.92
2023-01-18T09:00:42.316Z,75.09
2023-01-18T09:03:15.973Z,74.99
2023-01-18T09:05:49.611Z,74.68
2023-01-18T09:08:23.027Z,74.72
2023-01-18T09:10:56.680Z,74.71
2023-01-18T09:13:30.137Z,74.54
2023-01-18T09:16:05.814Z,74.45
2023-01-18T09:18:39.939Z,74.28
2023-01-18T09:21:16.611Z,74.47
2023-01-18T09:23:51.670Z,74.60
2023-01-18T09:26:25.281Z,74.54
2023-01-18T09:28:58.921Z,74.41
2023-01-18T09:31:32.753Z,74.61
2023-01-18T09:34:18.831Z,74.60
2023-01-18T09:36:42.429Z,74.37
2023-01-18T09:39:16.035Z,74.41
2023-01-18T09:41:55.284Z,74.38
2023-01-18T09:44:31.859Z,74.31
2023-01-18T09:47:08.569Z,74.46
2023-01-18T09:49:46.573Z,74.30
2023-01-18T09:52:29.004Z,74.45
2023-01-18T09:55:07.627Z,74.26
2023-01-18T09:57:50.553Z,74.59
2023-01-18T10:00:26.220Z,74.60
2023-01-18T10:03:02.618Z,74.34
2023-01-18T10:05:38.943Z,74.13
2023-01-18T10:08:16.267Z,74.05
2023-01-18T10:10:53.506Z,74.54
2023-01-18T10:16:28.184Z,74.83
2023-01-18T10:19:02.494Z,74.55
2023-01-18T10:21:45.270Z,74.36
2023-01-18T10:24:35.823Z,74.37
2023-01-18T10:27:38.599Z,74.27
2023-01-18T10:30:30.333Z,74.32
2023-01-18T10:33:07.426Z,74.48
2023-01-18T10:35:45.464Z,74.48
2023-01-18T10:38:22.128Z,74.73
2023-01-18T10:40:59.110Z,75.06
2023-01-18T10:43:33.470Z,74.88
2023-01-18T10:46:14.461Z,74.81
2023-01-18T10:48:50.246Z,75.26
2023-01-18T10:54:29.429Z,75.33
2023-01-18T10:57:09.181Z,75.30
2023-01-18T10:59:43.035Z,75.41
2023-01-18T11:02:24.940Z,75.60
2023-01-18T11:05:01.727Z,75.37
2023-01-18T11:07:35.413Z,75.18
2023-01-18T11:10:14.980Z,75.07
2023-01-18T11:12:50.324Z,75.12
2023-01-18T11:15:32.295Z,75.29
2023-01-18T11:18:13.257Z,75.30
2023-01-18T11:20:50.745Z,74.49
2023-01-18T11:23:27.054Z,74.57
2023-01-18T11:26:04.375Z,74.55
2023-01-18T11:28:41.313Z,74.74
2023-01-18T11:31:18.200Z,74.97
2023-01-18T11:33:55.030Z,75.05
2023-01-18T11:36:40.590Z,75.17
2023-01-18T11:39:31.481Z,75.13
2023-01-18T11:42:18.568Z,75.40
2023-01-18T11:45:01.510Z,75.42
2023-01-18T11:47:40.431Z,75.24
2023-01-18T11:50:22.376Z,75.19
2023-01-18T11:53:01.012Z,75.30
2023-01-18T11:55:38.185Z,75.33
2023-01-18T11:58:17.049Z,75.62
2023-01-18T12:00:55.638Z,75.51
2023-01-18T12:03:41.453Z,75.52
2023-01-18T12:06:18.115Z,75.74
2023-01-18T12:09:12.295Z,75.75
2023-01-18T12:12:13.507Z,76.07
2023-01-18T12:14:43.935Z,76.21
2023-01-18T12:17:30.853Z,76.38
2023-01-18T12:20:17.978Z,76.44
2023-01-18T12:23:12.290Z,76.48
2023-01-18T12:29:08.652Z,76.51
2023-01-18T12:31:50.560Z,76.53
2023-01-18T12:34:26.930Z,76.33
2023-01-18T12:37:16.710Z,76.54
2023-01-18T12:40:11.170Z,76.03
2023-01-18T12:42:50.872Z,76.29
2023-01-18T12:45:30.820Z,76.30
2023-01-18T12:48:11.118Z,76.43
2023-01-18T12:50:47.467Z,76.56
2023-01-18T12:53:24.847Z,76.34
2023-01-18T12:55:59.713Z,75.64
2023-01-18T12:58:35.161Z,75.54
2023-01-18T13:01:11.925Z,75.31
2023-01-18T13:03:47.922Z,75.27
2023-01-18T13:06:22.210Z,74.80
2023-01-18T13:09:00.483Z,75.05
2023-01-18T13:11:36.660Z,74.73
2023-01-18T13:14:12.895Z,74.82
2023-01-18T13:16:49.457Z,74.91
2023-01-18T13:19:26.031Z,74.30
2023-01-18T13:22:08.479Z,74.25
2023-01-18T13:24:55.219Z,73.86
2023-01-18T13:27:30.426Z,73.88
2023-01-18T13:30:19.526Z,74.01
2023-01-18T13:32:53.705Z,74.19
2023-01-18T13:35:32.688Z,73.45
2023-01-18T13:38:12.864Z,73.05
2023-01-18T13:40:49.112Z,73.06
2023-01-18T13:43:35.262Z,73.14
2023-01-18T13:46:22.165Z,72.55
2023-01-18T13:48:57.536Z,72.49
2023-01-18T13:51:56.800Z,72.38
2023-01-18T13:55:05.683Z,72.32
2023-01-18T13:57:39.098Z,72.29
2023-01-18T14:00:26.143Z,72.07
2023-01-18T14:03:08.162Z,72.32
2023-01-18T14:05:45.146Z,71.72
2023-01-18T14:08:26.257Z,71.30
2023-01-18T14:11:05.035Z,71.08
2023-01-18T14:14:04.901Z,71.04
2023-01-18T14:16:41.154Z,71.26
2023-01-18T14:19:20.150Z,70.98
2023-01-18T14:22:03.875Z,70.80
2023-01-18T14:24:48.147Z,70.86
2023-01-18T14:27:25.093Z,71.15
2023-01-18T14:30:01.726Z,71.20
2023-01-18T14:32:38.906Z,70.70
2023-01-18T14:35:25.455Z,70.64
2023-01-18T14:38:19.139Z,70.82
2023-01-18T14:40:45.984Z,70.54
2023-01-18T14:43:22.497Z,70.64
2023-01-18T14:46:00.405Z,70.20
2023-01-18T14:48:34.727Z,70.01
2023-01-18T14:51:08.702Z,69.94
2023-01-18T14:53:45.546Z,69.31
2023-01-18T14:56:22.105Z,68.90
2023-01-18T14:58:57.522Z,68.69
2023-01-18T15:01:33.993Z,68.64
2023-01-18T15:04:10.164Z,69.37
2023-01-18T15:06:46.418Z,69.27
2023-01-18T15:09:22.952Z,69.94
2023-01-18T15:11:59.569Z,69.69
2023-01-18T15:14:36.023Z,68.93
2023-01-18T15:17:11.727Z,68.48
2023-01-18T15:19:47.848Z,68.14
2023-01-18T15:22:24.537Z,67.69
2023-01-18T15:25:00.552Z,67.67
2023-01-18T15:27:35.488Z,67.68
2023-01-18T15:30:16.835Z,68.08
2023-01-18T15:32:52.469Z,68.15
2023-01-18T15:35:26.894Z,67.99
2023-01-18T15:38:02.256Z,67.99
2023-01-18T15:40:35.945Z,67.84
2023-01-18T15:43:12.497Z,67.97
2023-01-18T15:45:49.719Z,67.22
2023-01-18T15:48:25.514Z,66.42
2023-01-18T15:51:08.327Z,66.04
2023-01-18T15:53:48.370Z,66.94
2023-01-18T15:56:25.182Z,67.07
2023-01-18T15:59:01.895Z,67.08
2023-01-18T16:01:36.315Z,67.11
2023-01-18T16:04:23.132Z,66.91
2023-01-18T16:06:58.637Z,66.95
2023-01-18T16:09:33.599Z,66.22
2023-01-18T16:12:08.082Z,67.09
2023-01-18T16:14:43.664Z,66.98
2023-01-18T16:17:19.565Z,67.24
2023-01-18T16:19:55.405Z,66.48
2023-01-18T16:22:30.279Z,66.39
2023-01-18T16:25:06.055Z,66.29
2023-01-18T16:27:49.264Z,66.96
2023-01-18T16:30:25.369Z,66.81
2023-01-18T16:33:10.043Z,66.39
2023-01-18T16:35:43.275Z,66.38
2023-01-18T16:38:18.916Z,66.13
2023-01-18T16:40:53.344Z,66.20
2023-01-18T16:43:29.673Z,66.70
2023-01-18T16:46:04.674Z,66.59
2023-01-18T16:48:38.316Z,66.62
2023-01-18T16:51:20.575Z,66.30
2023-01-18T16:53:54.153Z,66.46
2023-01-18T16:56:27.313Z,65.87
2023-01-18T16:59:00.763Z,66.10
2023-01-18T17:01:34.829Z,66.19
2023-01-18T17:04:10.720Z,66.55
2023-01-18T17:06:45.209Z,66.72
2023-01-18T17:09:24.236Z,67.03
2023-01-18T17:11:57.942Z,67.31
2023-01-18T17:14:34.414Z,66.85
2023-01-18T17:17:10.518Z,67.16
2023-01-18T17:19:44.283Z,67.15
2023-01-18T17:22:17.743Z,67.06
2023-01-18T17:24:52.845Z,67.41
2023-01-18T17:27:26.211Z,67.64
2023-01-18T17:30:01.095Z,68.01
2023-01-18T17:32:34.867Z,68.36
2023-01-18T17:35:10.197Z,68.72
2023-01-18T17:37:43.607Z,68.83
2023-01-18T17:40:27.337Z,68.67
2023-01-18T17:42:54.419Z,68.88
2023-01-18T17:45:28.186Z,69.21
2023-01-18T17:48:01.697Z,69.40
2023-01-18T17:50:37.106Z,69.61
2023-01-18T17:53:10.990Z,69.45
2023-01-18T17:55:44.441Z,69.88
2023-01-18T17:58:18.201Z,70.23
2023-01-18T18:00:52.315Z,70.37
2023-01-18T18:03:27.599Z,70.64
2023-01-18T18:06:02.500Z,70.65
2023-01-18T18:08:36.652Z,70.98
2023-01-18T18:11:11.284Z,71.19
2023-01-18T18:13:45.123Z,71.31
2023-01-18T18:16:19.399Z,71.29
2023-01-18T18:18:53.412Z,71.58
2023-01-18T18:21:27.474Z,71.70
2023-01-18T18:24:01.184Z,71.77
2023-01-18T18:26:34.784Z,72.14
2023-01-18T18:29:09.057Z,72.09
2023-01-18T18:31:44.048Z,72.37
2023-01-18T18:34:17.502Z,72.22
2023-01-18T18:36:51.044Z,72.39
2023-01-18T18:39:24.938Z,72.71
2023-01-18T18:41:58.917Z,72.71
2023-01-18T18:44:32.649Z,72.83
2023-01-18T18:47:07.548Z,73.03
2023-01-18T18:49:41.467Z,73.41
2023-01-18T18:52:15.058Z,73.43
2023-01-18T18:54:48.515Z,73.48
2023-01-18T18:57:23.349Z,73.45
2023-01-18T18:59:56.728Z,73.57
2023-01-18T19:02:30.855Z,73.68
2023-01-18T19:05:04.518Z,73.80
2023-01-18T19:07:38.075Z,73.94
2023-01-18T19:10:14.828Z,73.94
2023-01-18T19:12:48.330Z,73.98
2023-01-18T19:15:21.721Z,74.15
2023-01-18T19:17:55.551Z,74.19
2023-01-18T19:20:29.564Z,74.29
2023-01-18T19:23:03.586Z,74.45
2023-01-18T19:25:38.795Z,74.54
2023-01-18T19:28:15.354Z,74.62
2023-01-18T19:30:49.139Z,74.57
2023-01-18T19:33:22.646Z,74.75
2023-01-18T19:36:01.636Z,74.81
2023-01-18T19:38:38.732Z,74.92
2023-01-18T19:41:10.852Z,75.05
2023-01-18T19:43:44.729Z,75.15
2023-01-18T19:46:20.432Z,74.96
2023-01-18T19:49:00.451Z,75.47
2023-01-18T19:51:36.494Z,75.31
2023-01-18T19:54:12.647Z,75.49
2023-01-18T19:56:47.066Z,75.62
2023-01-18T19:59:20.646Z,75.87
2023-01-18T20:01:55.141Z,75.93
2023-01-18T20:04:31.402Z,75.95
2023-01-18T20:07:04.885Z,76.33
2023-01-18T20:09:43.353Z,76.48
2023-01-18T20:12:14.055Z,76.59
2023-01-18T20:14:47.539Z,76.66
2023-01-18T20:17:21.306Z,76.78
2023-01-18T20:19:54.950Z,76.91
2023-01-18T20:22:28.842Z,76.89
2023-01-18T20:25:02.564Z,76.80
2023-01-18T20:27:35.917Z,76.81
2023-01-18T20:30:14.668Z,77.15
2023-01-18T20:32:47.985Z,77.52
2023-01-18T20:35:21.545Z,77.76
2023-01-18T20:37:55.342Z,78.27
2023-01-18T20:40:28.747Z,78.60
2023-01-18T20:43:02.815Z,78.77
2023-01-18T20:45:36.035Z,78.93
2023-01-18T20:48:10.017Z,78.85
2023-01-18T20:50:43.509Z,78.94
2023-01-18T20:53:17.011Z,78.82
2023-01-18T20:55:50.056Z,78.77
2023-01-18T20:58:26.176Z,78.67
2023-01-18T21:01:01.134Z,78.95
2023-01-18T21:03:34.591Z,79.05
2023-01-18T21:06:09.719Z,79.34
2023-01-18T21:08:43.234Z,79.52
2023-01-18T21:11:17.682Z,79.78
2023-01-18T21:13:51.296Z,79.99
2023-01-18T21:16:25.714Z,80.02
2023-01-18T21:18:59.681Z,80.20
2023-01-18T21:21:33.189Z,80.30
2023-01-18T21:24:07.970Z,80.30
2023-01-18T21:26:41.453Z,80.44
2023-01-18T21:29:15.162Z,80.42
2023-01-18T21:31:50.413Z,80.51
2023-01-18T21:34:24.238Z,80.51
2023-01-18T21:36:57.686Z,80.66
2023-01-18T21:39:31.031Z,80.77
2023-01-18T21:42:22.189Z,80.91
2023-01-18T21:45:13.047Z,81.10
2023-01-18T21:47:46.460Z,81.19
2023-01-18T21:50:37.692Z,81.46
2023-01-18T21:53:33.228Z,81.40
2023-01-18T21:56:07.247Z,81.55
2023-01-18T21:58:57.786Z,81.44
2023-01-18T22:01:34.455Z,81.67
2023-01-18T22:04:26.897Z,81.66
2023-01-18T22:07:03.558Z,81.34
2023-01-18T22:09:38.606Z,81.00
2023-01-18T22:12:12.019Z,81.24
2023-01-18T22:14:45.680Z,81.12
2023-01-18T22:17:19.750Z,80.99
2023-01-18T22:19:53.338Z,81.03
2023-01-18T22:22:27.094Z,80.43
2023-01-18T22:25:02.455Z,80.58
2023-01-18T22:27:35.797Z,80.66
2023-01-18T22:30:12.139Z,80.50
2023-01-18T22:32:45.752Z,80.53
2023-01-18T22:35:19.154Z,80.54
2023-01-18T22:37:52.635Z,80.29
2023-01-18T22:40:26.197Z,80.44
2023-01-18T22:42:59.737Z,80.46
2023-01-18T22:45:33.314Z,80.50
2023-01-18T22:48:07.535Z,80.27
2023-01-18T22:50:40.978Z,80.10
2023-01-18T22:53:14.439Z,79.85
2023-01-18T22:55:47.814Z,80.09
2023-01-18T22:58:21.316Z,80.51
2023-01-18T23:00:54.841Z,80.81
2023-01-18T23:03:29.801Z,80.99
2023-01-18T23:06:03.999Z,81.10
2023-01-18T23:08:40.995Z,81.20
2023-01-18T23:11:16.811Z,81.64
2023-01-18T23:14:10.654Z,81.64
2023-01-18T23:17:02.535Z,81.75
2023-01-18T23:19:37.515Z,81.92
2023-01-18T23:22:11.423Z,81.86
2023-01-18T23:24:45.075Z,81.98
2023-01-18T23:27:18.733Z,82.04
2023-01-18T23:29:54.053Z,82.08
2023-01-18T23:32:30.053Z,82.07
2023-01-18T23:35:03.842Z,82.06
2023-01-18T23:37:37.141Z,82.01
2023-01-18T23:40:31.137Z,81.74
2023-01-18T23:43:22.014Z,81.91
2023-01-18T23:46:12.991Z,81.85
2023-01-18T23:49:03.542Z,81.70
2023-01-18T23:51:54.290Z,81.78
2023-01-18T23:54:27.753Z,82.01
2023-01-18T23:57:01.146Z,82.06
2023-01-18T23:59:34.863Z,82.05
